Fitler, Mississippi
Current Conditions -  °F | °C
As of 6:53 PM on Friday 19 Dec 2014 (Local Time) from KTVR Reporting Station
Broken Clouds Broken Clouds  
Wind Chill: 44°   Ceiling: 11000
Heat Index: 47°   Visibility: 10mi
Dew Point: 44°   Wind: 7mph
Humidity: 90%   Direction: 60°ENE
Pressure: 30.14"   Gusts: NA
Location:  32.8112°N, 90.8327°W
Report Text: KTVR 200053Z AUTO 06006KT 10SM FEW014 BKN110 08/07 A3014 RMK AO2 RAE2355 SLP214 P0000 T00830067
Loading
Personal Weather Stations






























Interactive Weather Map New forecast layout! Learn more

10-Day Weather Forecast

Advertisements
Track Severe Weather on mobile